sensor_id;sensor_type;location;lat;lon;timestamp;temperature;humidity
3402;DHT22;1714;49.756;8.610;2023-07-24T00:08:33;20.60;1.00
3402;DHT22;1714;49.756;8.610;2023-07-24T00:19:08;20.30;1.00
3402;DHT22;1714;49.756;8.610;2023-07-24T00:29:43;20.40;1.00
3402;DHT22;1714;49.756;8.610;2023-07-24T00:40:17;20.40;1.00
3402;DHT22;1714;49.756;8.610;2023-07-24T00:50:53;20.40;1.00
3402;DHT22;1714;49.756;8.610;2023-07-24T01:01:29;20.30;1.00
3402;DHT22;1714;49.756;8.610;2023-07-24T01:12:16;20.70;1.00
3402;DHT22;1714;49.756;8.610;2023-07-24T01:33:37;20.70;1.00
3402;DHT22;1714;49.756;8.610;2023-07-24T01:44:13;20.70;1.00
3402;DHT22;1714;49.756;8.610;2023-07-24T01:54:48;20.80;1.00
3402;DHT22;1714;49.756;8.610;2023-07-24T02:05:23;20.70;1.00
3402;DHT22;1714;49.756;8.610;2023-07-24T02:15:58;20.70;1.00
3402;DHT22;1714;49.756;8.610;2023-07-24T02:26:32;20.60;1.00
3402;DHT22;1714;49.756;8.610;2023-07-24T02:37:09;20.60;1.00
3402;DHT22;1714;49.756;8.610;2023-07-24T02:47:44;20.50;1.00
3402;DHT22;1714;49.756;8.610;2023-07-24T02:58:19;20.50;1.00
3402;DHT22;1714;49.756;8.610;2023-07-24T03:08:54;20.30;1.00
3402;DHT22;1714;49.756;8.610;2023-07-24T03:19:29;20.20;1.00
3402;DHT22;1714;49.756;8.610;2023-07-24T03:30:05;20.20;1.00
3402;DHT22;1714;49.756;8.610;2023-07-24T03:40:39;20.10;1.00
3402;DHT22;1714;49.756;8.610;2023-07-24T07:54:28;24.10;1.00
3402;DHT22;1714;49.756;8.610;2023-07-24T08:05:03;24.70;1.00
3402;DHT22;1714;49.756;8.610;2023-07-24T08:15:50;24.40;1.00
3402;DHT22;1714;49.756;8.610;2023-07-24T08:26:25;24.00;1.00
3402;DHT22;1714;49.756;8.610;2023-07-24T08:37:01;24.10;1.00
3402;DHT22;1714;49.756;8.610;2023-07-24T08:47:36;24.10;1.00
3402;DHT22;1714;49.756;8.610;2023-07-24T08:58:11;24.10;1.00
3402;DHT22;1714;49.756;8.610;2023-07-24T09:08:46;23.80;1.00
3402;DHT22;1714;49.756;8.610;2023-07-24T09:19:21;24.00;1.00
3402;DHT22;1714;49.756;8.610;2023-07-24T09:29:58;24.80;1.00
3402;DHT22;1714;49.756;8.610;2023-07-24T09:40:48;24.00;1.00
3402;DHT22;1714;49.756;8.610;2023-07-24T09:51:25;23.80;1.00
3402;DHT22;1714;49.756;8.610;2023-07-24T10:02:01;24.00;1.00
3402;DHT22;1714;49.756;8.610;2023-07-24T10:12:37;24.00;1.00
3402;DHT22;1714;49.756;8.610;2023-07-24T10:23:17;23.80;1.00
3402;DHT22;1714;49.756;8.610;2023-07-24T10:33:53;23.40;1.00
3402;DHT22;1714;49.756;8.610;2023-07-24T10:44:32;23.50;1.00
3402;DHT22;1714;49.756;8.610;2023-07-24T10:55:07;24.30;1.00
3402;DHT22;1714;49.756;8.610;2023-07-24T11:05:44;24.80;1.00
3402;DHT22;1714;49.756;8.610;2023-07-24T11:16:19;25.40;1.00
3402;DHT22;1714;49.756;8.610;2023-07-24T11:26:54;25.80;1.00
3402;DHT22;1714;49.756;8.610;2023-07-24T11:37:29;25.50;1.00
3402;DHT22;1714;49.756;8.610;2023-07-24T11:48:09;25.80;1.00
3402;DHT22;1714;49.756;8.610;2023-07-24T11:58:45;26.50;1.00
3402;DHT22;1714;49.756;8.610;2023-07-24T12:09:20;26.00;1.00
3402;DHT22;1714;49.756;8.610;2023-07-24T12:19:55;25.60;1.00
3402;DHT22;1714;49.756;8.610;2023-07-24T12:30:30;25.80;1.00
3402;DHT22;1714;49.756;8.610;2023-07-24T12:41:05;26.50;1.00
3402;DHT22;1714;49.756;8.610;2023-07-24T12:51:40;28.40;1.00
3402;DHT22;1714;49.756;8.610;2023-07-24T13:02:15;28.60;1.00
3402;DHT22;1714;49.756;8.610;2023-07-24T13:12:49;27.70;1.00
3402;DHT22;1714;49.756;8.610;2023-07-24T13:23:25;27.20;1.00
3402;DHT22;1714;49.756;8.610;2023-07-24T13:34:01;27.50;1.00
3402;DHT22;1714;49.756;8.610;2023-07-24T13:44:36;26.60;1.00
3402;DHT22;1714;49.756;8.610;2023-07-24T13:55:11;25.80;1.00
3402;DHT22;1714;49.756;8.610;2023-07-24T14:05:46;25.20;1.00
3402;DHT22;1714;49.756;8.610;2023-07-24T14:16:21;25.10;1.00
3402;DHT22;1714;49.756;8.610;2023-07-24T14:26:56;24.70;1.00
3402;DHT22;1714;49.756;8.610;2023-07-24T14:37:30;24.70;1.00
3402;DHT22;1714;49.756;8.610;2023-07-24T14:48:06;25.30;1.00
3402;DHT22;1714;49.756;8.610;2023-07-24T14:58:43;26.40;1.00
3402;DHT22;1714;49.756;8.610;2023-07-24T15:09:20;25.40;1.00
3402;DHT22;1714;49.756;8.610;2023-07-24T15:19:54;25.80;1.00
3402;DHT22;1714;49.756;8.610;2023-07-24T15:30:30;26.50;1.00
3402;DHT22;1714;49.756;8.610;2023-07-24T15:41:05;25.90;1.00
3402;DHT22;1714;49.756;8.610;2023-07-24T15:51:40;25.70;1.00
3402;DHT22;1714;49.756;8.610;2023-07-24T16:02:14;26.10;1.00
3402;DHT22;1714;49.756;8.610;2023-07-24T16:12:49;25.80;1.00
3402;DHT22;1714;49.756;8.610;2023-07-24T16:23:24;24.80;1.00
3402;DHT22;1714;49.756;8.610;2023-07-24T16:33:59;24.60;1.00
3402;DHT22;1714;49.756;8.610;2023-07-24T16:44:34;24.30;1.00
3402;DHT22;1714;49.756;8.610;2023-07-24T16:55:11;24.60;1.00
3402;DHT22;1714;49.756;8.610;2023-07-24T17:05:46;24.70;1.00
3402;DHT22;1714;49.756;8.610;2023-07-24T17:16:21;24.50;1.00
3402;DHT22;1714;49.756;8.610;2023-07-24T17:26:56;24.40;1.00
3402;DHT22;1714;49.756;8.610;2023-07-24T17:37:31;24.30;1.00
3402;DHT22;1714;49.756;8.610;2023-07-24T17:48:12;24.10;1.00
3402;DHT22;1714;49.756;8.610;2023-07-24T17:58:47;24.00;1.00
3402;DHT22;1714;49.756;8.610;2023-07-24T18:09:21;23.60;1.00
3402;DHT22;1714;49.756;8.610;2023-07-24T18:19:56;23.40;1.00
3402;DHT22;1714;49.756;8.610;2023-07-24T18:30:31;23.10;1.00
3402;DHT22;1714;49.756;8.610;2023-07-24T18:41:06;22.90;1.00
3402;DHT22;1714;49.756;8.610;2023-07-24T18:51:41;22.80;1.00
3402;DHT22;1714;49.756;8.610;2023-07-24T19:02:16;22.60;1.00
3402;DHT22;1714;49.756;8.610;2023-07-24T19:12:51;22.50;1.00
3402;DHT22;1714;49.756;8.610;2023-07-24T19:23:26;22.30;1.00
3402;DHT22;1714;49.756;8.610;2023-07-24T19:34:01;22.10;1.00
3402;DHT22;1714;49.756;8.610;2023-07-24T19:44:36;22.00;1.00
3402;DHT22;1714;49.756;8.610;2023-07-24T19:55:10;21.90;1.00
3402;DHT22;1714;49.756;8.610;2023-07-24T20:05:56;21.60;1.00
3402;DHT22;1714;49.756;8.610;2023-07-24T20:16:31;21.50;1.00
3402;DHT22;1714;49.756;8.610;2023-07-24T20:27:06;21.20;1.00
3402;DHT22;1714;49.756;8.610;2023-07-24T20:37:41;21.00;1.00
3402;DHT22;1714;49.756;8.610;2023-07-24T20:48:16;20.70;1.00
3402;DHT22;1714;49.756;8.610;2023-07-24T20:58:51;20.30;1.00
3402;DHT22;1714;49.756;8.610;2023-07-24T21:09:26;20.20;1.00
3402;DHT22;1714;49.756;8.610;2023-07-24T21:20:01;20.00;1.00
3402;DHT22;1714;49.756;8.610;2023-07-24T21:30:36;19.80;1.00
3402;DHT22;1714;49.756;8.610;2023-07-24T21:41:10;19.70;1.00
3402;DHT22;1714;49.756;8.610;2023-07-24T21:51:45;19.60;1.00
3402;DHT22;1714;49.756;8.610;2023-07-24T22:02:20;19.40;1.00
3402;DHT22;1714;49.756;8.610;2023-07-24T22:12:55;19.20;1.00
3402;DHT22;1714;49.756;8.610;2023-07-24T22:23:31;19.30;1.00
3402;DHT22;1714;49.756;8.610;2023-07-24T22:34:06;19.30;1.00
3402;DHT22;1714;49.756;8.610;2023-07-24T22:44:41;19.30;1.00
3402;DHT22;1714;49.756;8.610;2023-07-24T22:55:16;19.30;1.00
3402;DHT22;1714;49.756;8.610;2023-07-24T23:05:52;19.30;1.00
3402;DHT22;1714;49.756;8.610;2023-07-24T23:16:27;19.30;1.00
3402;DHT22;1714;49.756;8.610;2023-07-24T23:27:02;19.40;1.00
3402;DHT22;1714;49.756;8.610;2023-07-24T23:37:37;19.40;1.00
3402;DHT22;1714;49.756;8.610;2023-07-24T23:48:12;19.40;1.00
3402;DHT22;1714;49.756;8.610;2023-07-24T23:58:47;19.50;1.00
